NKS0001 KDFW-KMZJ
Flight info
| Callsign | NKS0001 |
|---|---|
| Flight time | 2h 9m |
| Altitude | 34000 |
| Route | WSTEX2 CIKAN BGS SUMMY MOLLY SSO HOTTT SECBO |
| Aircraft | A21N/M-SDE2E3FGHIRWXY/LB1 |
Departure
| Time | 2026-05-07 03:01 |
|---|---|
| Airport | Dallas Fort Worth International Airport (KDFW) |
Arrival
| Time | 2026-05-07 05:11 |
|---|---|
| Airport | Pinal Airpark (KMZJ) |
| Time | Latitude | Longitude | Altitude | Speed | Heading |
|---|---|---|---|---|---|
| 2026-05-07 02:24 | 32.88356 | -97.03451 | 616 ft | 0 kts | 143° |
| 2026-05-07 02:53 | 32.88351 | -97.03451 | 616 ft | 0 kts | 176° |
| 2026-05-07 02:53 | 32.88349 | -97.03455 | 616 ft | 0 kts | 212° |
| 2026-05-07 02:54 | 32.88349 | -97.03459 | 616 ft | 0 kts | 245° |
| 2026-05-07 02:54 | 32.88361 | -97.03471 | 616 ft | 7 kts | 331° |
| 2026-05-07 02:54 | 32.88423 | -97.03483 | 620 ft | 11 kts | 358° |
| 2026-05-07 02:54 | 32.88508 | -97.03486 | 626 ft | 14 kts | 358° |
| 2026-05-07 02:55 | 32.88594 | -97.03539 | 627 ft | 16 kts | 297° |
| 2026-05-07 02:55 | 32.88601 | -97.03679 | 616 ft | 18 kts | 269° |
| 2026-05-07 02:55 | 32.88601 | -97.03844 | 616 ft | 21 kts | 270° |
| 2026-05-07 02:55 | 32.88601 | -97.04033 | 616 ft | 24 kts | 270° |
| 2026-05-07 02:56 | 32.88602 | -97.04243 | 616 ft | 27 kts | 271° |
| 2026-05-07 02:56 | 32.88603 | -97.04371 | 616 ft | 1 kts | 270° |
| 2026-05-07 02:56 | 32.88603 | -97.04373 | 616 ft | 0 kts | 270° |
| 2026-05-07 02:57 | 32.88603 | -97.04387 | 616 ft | 9 kts | 270° |
| 2026-05-07 02:58 | 32.88607 | -97.04545 | 623 ft | 21 kts | 271° |
| 2026-05-07 02:58 | 32.88605 | -97.04724 | 616 ft | 16 kts | 268° |
| 2026-05-07 02:58 | 32.88594 | -97.04866 | 616 ft | 17 kts | 236° |
| 2026-05-07 02:58 | 32.88471 | -97.04895 | 621 ft | 20 kts | 180° |
| 2026-05-07 02:59 | 32.88321 | -97.04896 | 618 ft | 23 kts | 180° |
| 2026-05-07 02:59 | 32.88153 | -97.04897 | 620 ft | 26 kts | 180° |
| 2026-05-07 02:59 | 32.87992 | -97.04898 | 622 ft | 13 kts | 180° |
| 2026-05-07 02:59 | 32.87913 | -97.04937 | 625 ft | 14 kts | 246° |
| 2026-05-07 03:00 | 32.87907 | -97.05051 | 628 ft | 9 kts | 270° |
| 2026-05-07 03:00 | 32.87937 | -97.05089 | 620 ft | 8 kts | 348° |
| 2026-05-07 03:00 | 32.87959 | -97.05090 | 617 ft | 0 kts | 0° |
| 2026-05-07 03:01 | 32.87960 | -97.05090 | 629 ft | 1 kts | 0° |
| 2026-05-07 03:01 | 32.88121 | -97.05089 | 620 ft | 66 kts | 1° |
| 2026-05-07 03:01 | 32.88882 | -97.05084 | 621 ft | 148 kts | 1° |
| 2026-05-07 03:01 | 32.89958 | -97.05082 | 1364 ft | 153 kts | 1° |
| 2026-05-07 03:02 | 32.91021 | -97.05090 | 2274 ft | 157 kts | 2° |
| 2026-05-07 03:02 | 32.92191 | -97.05133 | 2891 ft | 179 kts | 1° |
| 2026-05-07 03:02 | 32.93495 | -97.05187 | 3400 ft | 198 kts | 360° |
| 2026-05-07 03:02 | 32.94875 | -97.05418 | 3681 ft | 219 kts | 344° |
| 2026-05-07 03:03 | 32.96415 | -97.06087 | 4093 ft | 246 kts | 342° |
| 2026-05-07 03:03 | 32.98052 | -97.06793 | 5183 ft | 248 kts | 340° |
| 2026-05-07 03:03 | 32.99601 | -97.07708 | 6207 ft | 251 kts | 320° |
| 2026-05-07 03:03 | 33.00682 | -97.09344 | 7201 ft | 254 kts | 293° |
| 2026-05-07 03:04 | 33.01029 | -97.11371 | 8222 ft | 254 kts | 268° |
| 2026-05-07 03:04 | 33.00912 | -97.13458 | 9354 ft | 252 kts | 265° |
| 2026-05-07 03:04 | 33.00781 | -97.15532 | 10462 ft | 250 kts | 264° |
| 2026-05-07 03:04 | 33.00645 | -97.17604 | 11401 ft | 255 kts | 263° |
| 2026-05-07 03:05 | 33.00448 | -97.19803 | 11837 ft | 279 kts | 262° |
| 2026-05-07 03:05 | 33.00192 | -97.22202 | 12198 ft | 302 kts | 259° |
| 2026-05-07 03:05 | 32.99484 | -97.24620 | 12721 ft | 318 kts | 243° |
| 2026-05-07 03:05 | 32.98173 | -97.26792 | 13540 ft | 325 kts | 235° |
| 2026-05-07 03:06 | 32.96795 | -97.28896 | 14406 ft | 327 kts | 235° |
| 2026-05-07 03:06 | 32.95378 | -97.31077 | 15266 ft | 329 kts | 236° |
| 2026-05-07 03:06 | 32.93993 | -97.33216 | 16096 ft | 332 kts | 236° |
| 2026-05-07 03:06 | 32.92569 | -97.35418 | 16926 ft | 335 kts | 236° |
| 2026-05-07 03:07 | 32.91143 | -97.37623 | 17755 ft | 338 kts | 236° |
| 2026-05-07 03:07 | 32.89712 | -97.39830 | 18542 ft | 340 kts | 236° |
| 2026-05-07 03:07 | 32.88252 | -97.42079 | 19271 ft | 342 kts | 236° |
| 2026-05-07 03:07 | 32.86795 | -97.44322 | 20041 ft | 344 kts | 236° |
| 2026-05-07 03:08 | 32.85332 | -97.46572 | 20839 ft | 345 kts | 236° |
| 2026-05-07 03:08 | 32.83863 | -97.48828 | 21608 ft | 346 kts | 236° |
| 2026-05-07 03:08 | 32.82383 | -97.51097 | 22251 ft | 347 kts | 236° |
| 2026-05-07 03:08 | 32.80898 | -97.53369 | 22956 ft | 348 kts | 236° |
| 2026-05-07 03:09 | 32.79404 | -97.55654 | 23627 ft | 350 kts | 236° |
| 2026-05-07 03:09 | 32.77906 | -97.57946 | 24187 ft | 352 kts | 236° |
| 2026-05-07 03:09 | 32.76399 | -97.60255 | 24747 ft | 354 kts | 236° |
| 2026-05-07 03:09 | 32.74886 | -97.62575 | 25289 ft | 356 kts | 236° |
| 2026-05-07 03:10 | 32.73385 | -97.64876 | 25836 ft | 357 kts | 235° |
| 2026-05-07 03:10 | 32.71856 | -97.67213 | 26386 ft | 359 kts | 235° |
| 2026-05-07 03:10 | 32.70315 | -97.69563 | 26926 ft | 361 kts | 235° |
| 2026-05-07 03:10 | 32.68891 | -97.72019 | 27438 ft | 361 kts | 242° |
| 2026-05-07 03:11 | 32.67917 | -97.74772 | 27991 ft | 363 kts | 252° |
| 2026-05-07 03:11 | 32.67453 | -97.77736 | 28490 ft | 368 kts | 261° |
| 2026-05-07 03:11 | 32.67233 | -97.80729 | 28978 ft | 370 kts | 261° |
| 2026-05-07 03:11 | 32.67001 | -97.83793 | 29483 ft | 372 kts | 261° |
| 2026-05-07 03:12 | 32.66761 | -97.86873 | 29985 ft | 375 kts | 260° |
| 2026-05-07 03:12 | 32.66518 | -97.89969 | 30417 ft | 376 kts | 260° |
| 2026-05-07 03:12 | 32.66278 | -97.93053 | 30978 ft | 373 kts | 260° |
| 2026-05-07 03:12 | 32.66044 | -97.96073 | 31580 ft | 369 kts | 260° |
| 2026-05-07 03:13 | 32.65808 | -97.99091 | 32221 ft | 365 kts | 259° |
| 2026-05-07 03:13 | 32.65570 | -98.02077 | 32863 ft | 361 kts | 259° |
| 2026-05-07 03:13 | 32.65334 | -98.05028 | 33482 ft | 357 kts | 259° |
| 2026-05-07 03:13 | 32.65099 | -98.07958 | 33956 ft | 355 kts | 259° |
| 2026-05-07 03:14 | 32.64865 | -98.10864 | 34064 ft | 350 kts | 259° |
| 2026-05-07 03:14 | 32.64638 | -98.13720 | 34081 ft | 344 kts | 259° |
| 2026-05-07 03:15 | 32.63965 | -98.22109 | 34075 ft | 340 kts | 259° |
| 2026-05-07 03:15 | 32.63514 | -98.27676 | 34071 ft | 340 kts | 259° |
| 2026-05-07 03:16 | 32.63059 | -98.33274 | 34069 ft | 340 kts | 259° |
| 2026-05-07 03:16 | 32.62605 | -98.38867 | 34070 ft | 340 kts | 259° |
| 2026-05-07 03:17 | 32.62146 | -98.44421 | 34062 ft | 340 kts | 259° |
| 2026-05-07 03:17 | 32.61686 | -98.50018 | 34065 ft | 341 kts | 259° |
| 2026-05-07 03:18 | 32.61227 | -98.55615 | 34070 ft | 341 kts | 259° |
| 2026-05-07 03:18 | 32.60759 | -98.61184 | 34078 ft | 341 kts | 259° |
| 2026-05-07 03:19 | 32.60285 | -98.66794 | 34086 ft | 341 kts | 259° |
| 2026-05-07 03:19 | 32.59813 | -98.72363 | 34105 ft | 341 kts | 259° |
| 2026-05-07 03:20 | 32.59340 | -98.77966 | 34109 ft | 341 kts | 259° |
| 2026-05-07 03:20 | 32.58865 | -98.83571 | 34110 ft | 341 kts | 258° |
| 2026-05-07 03:21 | 32.58388 | -98.89128 | 34117 ft | 341 kts | 259° |
| 2026-05-07 03:21 | 32.57908 | -98.94715 | 34110 ft | 340 kts | 259° |
| 2026-05-07 03:22 | 32.57425 | -99.00299 | 34105 ft | 340 kts | 258° |
| 2026-05-07 03:22 | 32.56940 | -99.05871 | 34093 ft | 339 kts | 258° |
| 2026-05-07 03:23 | 32.56456 | -99.11417 | 34078 ft | 339 kts | 259° |
| 2026-05-07 03:23 | 32.55961 | -99.16983 | 34072 ft | 339 kts | 259° |
| 2026-05-07 03:24 | 32.55472 | -99.22544 | 34068 ft | 339 kts | 259° |
| 2026-05-07 03:24 | 32.54976 | -99.28062 | 34066 ft | 339 kts | 258° |
| 2026-05-07 03:25 | 32.54478 | -99.33614 | 34063 ft | 339 kts | 259° |
| 2026-05-07 03:25 | 32.54109 | -99.39172 | 34073 ft | 340 kts | 261° |
| 2026-05-07 03:26 | 32.53865 | -99.43856 | 34078 ft | 340 kts | 261° |
| 2026-05-07 03:26 | 32.53558 | -99.49415 | 34070 ft | 340 kts | 260° |
| 2026-05-07 03:27 | 32.53226 | -99.55008 | 34074 ft | 340 kts | 260° |
| 2026-05-07 03:27 | 32.52880 | -99.60627 | 34082 ft | 341 kts | 260° |
| 2026-05-07 03:28 | 32.52533 | -99.66196 | 34085 ft | 341 kts | 260° |
| 2026-05-07 03:28 | 32.52188 | -99.71822 | 34087 ft | 341 kts | 260° |
| 2026-05-07 03:29 | 32.51842 | -99.77440 | 34068 ft | 341 kts | 260° |
| 2026-05-07 03:29 | 32.51492 | -99.83018 | 34065 ft | 341 kts | 260° |
| 2026-05-07 03:30 | 32.51139 | -99.88630 | 34054 ft | 342 kts | 259° |
| 2026-05-07 03:30 | 32.50780 | -99.94265 | 34050 ft | 343 kts | 259° |
| 2026-05-07 03:31 | 32.50417 | -99.99904 | 34045 ft | 343 kts | 259° |
| 2026-05-07 03:31 | 32.50057 | -100.05505 | 34040 ft | 343 kts | 259° |
| 2026-05-07 03:32 | 32.49691 | -100.11149 | 34042 ft | 343 kts | 259° |
| 2026-05-07 03:32 | 32.49321 | -100.16803 | 34034 ft | 343 kts | 259° |
| 2026-05-07 03:33 | 32.48947 | -100.22423 | 34023 ft | 344 kts | 259° |
| 2026-05-07 03:33 | 32.48569 | -100.28089 | 34002 ft | 345 kts | 259° |
| 2026-05-07 03:34 | 32.48189 | -100.33727 | 34096 ft | 345 kts | 258° |
| 2026-05-07 03:34 | 32.47747 | -100.39403 | 34115 ft | 346 kts | 258° |
| 2026-05-07 03:35 | 32.47279 | -100.45074 | 34101 ft | 346 kts | 258° |
| 2026-05-07 03:35 | 32.46809 | -100.50721 | 34106 ft | 346 kts | 258° |
| 2026-05-07 03:36 | 32.46345 | -100.56403 | 34104 ft | 346 kts | 258° |
| 2026-05-07 03:36 | 32.45891 | -100.62081 | 34082 ft | 347 kts | 258° |
| 2026-05-07 03:37 | 32.45435 | -100.67756 | 34058 ft | 348 kts | 258° |
| 2026-05-07 03:37 | 32.44968 | -100.73480 | 34043 ft | 349 kts | 258° |
| 2026-05-07 03:38 | 32.44493 | -100.79166 | 34026 ft | 349 kts | 258° |
| 2026-05-07 03:38 | 32.44013 | -100.84901 | 34013 ft | 349 kts | 258° |
| 2026-05-07 03:39 | 32.43536 | -100.90640 | 34012 ft | 349 kts | 258° |
| 2026-05-07 03:39 | 32.43057 | -100.96346 | 34017 ft | 349 kts | 258° |
| 2026-05-07 03:40 | 32.42566 | -101.02080 | 34009 ft | 350 kts | 258° |
| 2026-05-07 03:40 | 32.42082 | -101.07787 | 34003 ft | 350 kts | 258° |
| 2026-05-07 03:41 | 32.41597 | -101.13522 | 33993 ft | 350 kts | 258° |
| 2026-05-07 03:41 | 32.41107 | -101.19213 | 33985 ft | 350 kts | 258° |
| 2026-05-07 03:42 | 32.40612 | -101.24945 | 33985 ft | 350 kts | 258° |
| 2026-05-07 03:42 | 32.40113 | -101.30680 | 33993 ft | 350 kts | 258° |
| 2026-05-07 03:43 | 32.39611 | -101.36412 | 33986 ft | 350 kts | 257° |
| 2026-05-07 03:43 | 32.39108 | -101.42118 | 33990 ft | 350 kts | 257° |
| 2026-05-07 03:44 | 32.38601 | -101.47866 | 33978 ft | 351 kts | 257° |
| 2026-05-07 03:44 | 32.38128 | -101.53629 | 33984 ft | 352 kts | 258° |
| 2026-05-07 03:45 | 32.37692 | -101.59402 | 33985 ft | 352 kts | 258° |
| 2026-05-07 03:45 | 32.37261 | -101.65145 | 33984 ft | 352 kts | 258° |
| 2026-05-07 03:46 | 32.36814 | -101.70915 | 33986 ft | 352 kts | 258° |
| 2026-05-07 03:46 | 32.36352 | -101.76691 | 33978 ft | 353 kts | 258° |
| 2026-05-07 03:47 | 32.35889 | -101.82480 | 33976 ft | 353 kts | 258° |
| 2026-05-07 03:47 | 32.35429 | -101.88224 | 33979 ft | 353 kts | 258° |
| 2026-05-07 03:48 | 32.34963 | -101.94018 | 33971 ft | 353 kts | 258° |
| 2026-05-07 03:48 | 32.34500 | -101.99809 | 33971 ft | 353 kts | 258° |
| 2026-05-07 03:49 | 32.34030 | -102.05588 | 34000 ft | 353 kts | 258° |
| 2026-05-07 03:49 | 32.33560 | -102.11340 | 33999 ft | 353 kts | 258° |
| 2026-05-07 03:50 | 32.33085 | -102.17128 | 33996 ft | 353 kts | 258° |
| 2026-05-07 03:50 | 32.32605 | -102.22908 | 33976 ft | 353 kts | 258° |
| 2026-05-07 03:51 | 32.32124 | -102.28698 | 33973 ft | 353 kts | 258° |
| 2026-05-07 03:51 | 32.31644 | -102.34433 | 33970 ft | 353 kts | 258° |
| 2026-05-07 03:52 | 32.31160 | -102.40209 | 33970 ft | 353 kts | 258° |
| 2026-05-07 03:52 | 32.30673 | -102.45942 | 33970 ft | 345 kts | 259° |
| 2026-05-07 03:53 | 32.30197 | -102.51578 | 33952 ft | 344 kts | 258° |
| 2026-05-07 03:53 | 32.29719 | -102.57203 | 33947 ft | 344 kts | 258° |
| 2026-05-07 03:54 | 32.29230 | -102.62811 | 33942 ft | 345 kts | 258° |
| 2026-05-07 03:54 | 32.28745 | -102.68456 | 33942 ft | 345 kts | 259° |
| 2026-05-07 03:55 | 32.28264 | -102.74098 | 33942 ft | 345 kts | 258° |
| 2026-05-07 03:55 | 32.27776 | -102.79731 | 33966 ft | 340 kts | 259° |
| 2026-05-07 03:56 | 32.27303 | -102.85181 | 33941 ft | 332 kts | 259° |
| 2026-05-07 03:56 | 32.26822 | -102.90621 | 33931 ft | 332 kts | 259° |
| 2026-05-07 03:57 | 32.26340 | -102.96028 | 33915 ft | 333 kts | 259° |
| 2026-05-07 03:57 | 32.25850 | -103.01487 | 33917 ft | 334 kts | 259° |
| 2026-05-07 03:58 | 32.25356 | -103.06956 | 33915 ft | 334 kts | 259° |
| 2026-05-07 03:58 | 32.24863 | -103.12429 | 33918 ft | 335 kts | 259° |
| 2026-05-07 03:59 | 32.24377 | -103.17878 | 33905 ft | 335 kts | 259° |
| 2026-05-07 03:59 | 32.23881 | -103.23366 | 33900 ft | 336 kts | 259° |
| 2026-05-07 04:00 | 32.23380 | -103.28868 | 33904 ft | 337 kts | 259° |
| 2026-05-07 04:00 | 32.22872 | -103.34373 | 33911 ft | 337 kts | 259° |
| 2026-05-07 04:01 | 32.22363 | -103.39839 | 33912 ft | 337 kts | 259° |
| 2026-05-07 04:01 | 32.21860 | -103.45351 | 33914 ft | 337 kts | 259° |
| 2026-05-07 04:02 | 32.21347 | -103.50860 | 33859 ft | 338 kts | 258° |
| 2026-05-07 04:02 | 32.20829 | -103.56396 | 33878 ft | 343 kts | 258° |
| 2026-05-07 04:03 | 32.20305 | -103.62015 | 33879 ft | 344 kts | 258° |
| 2026-05-07 04:03 | 32.19772 | -103.67640 | 33887 ft | 345 kts | 258° |
| 2026-05-07 04:04 | 32.19239 | -103.73270 | 33897 ft | 345 kts | 258° |
| 2026-05-07 04:04 | 32.18707 | -103.78862 | 33906 ft | 345 kts | 258° |
| 2026-05-07 04:05 | 32.18167 | -103.84507 | 33912 ft | 345 kts | 258° |
| 2026-05-07 04:05 | 32.17629 | -103.90106 | 33895 ft | 345 kts | 258° |
| 2026-05-07 04:06 | 32.17083 | -103.95760 | 33902 ft | 345 kts | 258° |
| 2026-05-07 04:06 | 32.16536 | -104.01401 | 33903 ft | 346 kts | 258° |
| 2026-05-07 04:07 | 32.15988 | -104.07052 | 33974 ft | 346 kts | 258° |
| 2026-05-07 04:07 | 32.15437 | -104.12680 | 33996 ft | 347 kts | 258° |
| 2026-05-07 04:08 | 32.14881 | -104.18345 | 34003 ft | 347 kts | 258° |
| 2026-05-07 04:08 | 32.14324 | -104.23970 | 34007 ft | 347 kts | 258° |
| 2026-05-07 04:09 | 32.13760 | -104.29656 | 34001 ft | 348 kts | 258° |
| 2026-05-07 04:09 | 32.13193 | -104.35317 | 33994 ft | 349 kts | 258° |
| 2026-05-07 04:10 | 32.12621 | -104.41002 | 33989 ft | 349 kts | 258° |
| 2026-05-07 04:10 | 32.12046 | -104.46702 | 33977 ft | 349 kts | 258° |
| 2026-05-07 04:11 | 32.11473 | -104.52365 | 33968 ft | 349 kts | 258° |
| 2026-05-07 04:11 | 32.10898 | -104.58068 | 33953 ft | 349 kts | 258° |
| 2026-05-07 04:12 | 32.10315 | -104.63745 | 33948 ft | 349 kts | 258° |
| 2026-05-07 04:12 | 32.09732 | -104.69422 | 33953 ft | 349 kts | 258° |
| 2026-05-07 04:13 | 32.09146 | -104.75109 | 33949 ft | 349 kts | 258° |
| 2026-05-07 04:13 | 32.08563 | -104.80763 | 33945 ft | 349 kts | 258° |
| 2026-05-07 04:14 | 32.07978 | -104.86443 | 33946 ft | 349 kts | 258° |
| 2026-05-07 04:14 | 32.07383 | -104.92131 | 33952 ft | 349 kts | 258° |
| 2026-05-07 04:15 | 32.06890 | -104.96856 | 33952 ft | 349 kts | 258° |
| 2026-05-07 04:15 | 32.06190 | -105.03463 | 33950 ft | 349 kts | 258° |
| 2026-05-07 04:16 | 32.05690 | -105.08191 | 33950 ft | 348 kts | 258° |
| 2026-05-07 04:16 | 32.05088 | -105.13869 | 33947 ft | 348 kts | 258° |
| 2026-05-07 04:17 | 32.04482 | -105.19504 | 33949 ft | 349 kts | 258° |
| 2026-05-07 04:17 | 32.03871 | -105.25195 | 33954 ft | 349 kts | 258° |
| 2026-05-07 04:18 | 32.03264 | -105.30881 | 33956 ft | 349 kts | 258° |
| 2026-05-07 04:18 | 32.02659 | -105.36504 | 33957 ft | 349 kts | 258° |
| 2026-05-07 04:19 | 32.02038 | -105.42235 | 33946 ft | 350 kts | 258° |
| 2026-05-07 04:19 | 32.01424 | -105.47890 | 33949 ft | 350 kts | 258° |
| 2026-05-07 04:20 | 32.00800 | -105.53579 | 33945 ft | 350 kts | 258° |
| 2026-05-07 04:20 | 32.00176 | -105.59274 | 33944 ft | 350 kts | 258° |
| 2026-05-07 04:21 | 31.99234 | -105.67761 | 33928 ft | 350 kts | 257° |
| 2026-05-07 04:21 | 31.98772 | -105.73514 | 33925 ft | 358 kts | 265° |
| 2026-05-07 04:22 | 31.99235 | -105.79417 | 33928 ft | 362 kts | 268° |
| 2026-05-07 04:22 | 31.99710 | -105.85339 | 33934 ft | 364 kts | 268° |
| 2026-05-07 04:23 | 32.00180 | -105.91257 | 33936 ft | 364 kts | 268° |
| 2026-05-07 04:23 | 32.00643 | -105.97218 | 33945 ft | 365 kts | 267° |
| 2026-05-07 04:24 | 32.01109 | -106.03146 | 33957 ft | 365 kts | 267° |
| 2026-05-07 04:24 | 32.01578 | -106.09114 | 33963 ft | 366 kts | 267° |
| 2026-05-07 04:25 | 32.02040 | -106.15092 | 33995 ft | 366 kts | 267° |
| 2026-05-07 04:25 | 32.02498 | -106.21069 | 34018 ft | 366 kts | 267° |
| 2026-05-07 04:26 | 32.02951 | -106.27008 | 34033 ft | 366 kts | 267° |
| 2026-05-07 04:26 | 32.03407 | -106.32998 | 34045 ft | 366 kts | 267° |
| 2026-05-07 04:27 | 32.03862 | -106.38986 | 34059 ft | 366 kts | 267° |
| 2026-05-07 04:27 | 32.04307 | -106.44943 | 34047 ft | 366 kts | 267° |
| 2026-05-07 04:28 | 32.04756 | -106.50936 | 34025 ft | 366 kts | 268° |
| 2026-05-07 04:28 | 32.05203 | -106.56897 | 34054 ft | 367 kts | 267° |
| 2026-05-07 04:29 | 32.05639 | -106.62897 | 34088 ft | 367 kts | 268° |
| 2026-05-07 04:29 | 32.06078 | -106.68898 | 34086 ft | 366 kts | 268° |
| 2026-05-07 04:30 | 32.06524 | -106.74848 | 34067 ft | 367 kts | 268° |
| 2026-05-07 04:30 | 32.07067 | -106.80865 | 34042 ft | 368 kts | 269° |
| 2026-05-07 04:31 | 32.07632 | -106.86882 | 34018 ft | 369 kts | 269° |
| 2026-05-07 04:31 | 32.08184 | -106.92875 | 34046 ft | 369 kts | 269° |
| 2026-05-07 04:32 | 32.08733 | -106.98920 | 34043 ft | 369 kts | 269° |
| 2026-05-07 04:32 | 32.09261 | -107.04909 | 34034 ft | 370 kts | 269° |
| 2026-05-07 04:33 | 32.09793 | -107.10955 | 34010 ft | 371 kts | 269° |
| 2026-05-07 04:33 | 32.10324 | -107.16998 | 33990 ft | 372 kts | 269° |
| 2026-05-07 04:34 | 32.10852 | -107.23082 | 33971 ft | 373 kts | 269° |
| 2026-05-07 04:34 | 32.11381 | -107.29177 | 33946 ft | 373 kts | 269° |
| 2026-05-07 04:35 | 32.11908 | -107.35281 | 33967 ft | 374 kts | 269° |
| 2026-05-07 04:35 | 32.12430 | -107.41345 | 34011 ft | 374 kts | 269° |
| 2026-05-07 04:36 | 32.12954 | -107.47462 | 34043 ft | 374 kts | 269° |
| 2026-05-07 04:36 | 32.13479 | -107.53585 | 34074 ft | 375 kts | 269° |
| 2026-05-07 04:37 | 32.13993 | -107.59672 | 34100 ft | 375 kts | 269° |
| 2026-05-07 04:37 | 32.14510 | -107.65803 | 34123 ft | 374 kts | 269° |
| 2026-05-07 04:38 | 32.15023 | -107.71915 | 34129 ft | 374 kts | 268° |
| 2026-05-07 04:38 | 32.15527 | -107.78001 | 34135 ft | 374 kts | 268° |
| 2026-05-07 04:39 | 32.16030 | -107.84129 | 33977 ft | 374 kts | 268° |
| 2026-05-07 04:39 | 32.16533 | -107.90224 | 33981 ft | 375 kts | 268° |
| 2026-05-07 04:40 | 32.17036 | -107.96350 | 33978 ft | 374 kts | 268° |
| 2026-05-07 04:40 | 32.17532 | -108.02473 | 33977 ft | 374 kts | 268° |
| 2026-05-07 04:41 | 32.18023 | -108.08593 | 33978 ft | 374 kts | 268° |
| 2026-05-07 04:41 | 32.18510 | -108.14711 | 33978 ft | 374 kts | 268° |
| 2026-05-07 04:42 | 32.18991 | -108.20808 | 33977 ft | 374 kts | 268° |
| 2026-05-07 04:42 | 32.19474 | -108.26930 | 33978 ft | 375 kts | 268° |
| 2026-05-07 04:43 | 32.19962 | -108.33068 | 34000 ft | 375 kts | 268° |
| 2026-05-07 04:43 | 32.20446 | -108.39171 | 34033 ft | 376 kts | 268° |
| 2026-05-07 04:44 | 32.20927 | -108.45319 | 34088 ft | 376 kts | 268° |
| 2026-05-07 04:44 | 32.21403 | -108.51490 | 34104 ft | 377 kts | 268° |
| 2026-05-07 04:45 | 32.21875 | -108.57632 | 34121 ft | 377 kts | 268° |
| 2026-05-07 04:45 | 32.22341 | -108.63805 | 34135 ft | 377 kts | 268° |
| 2026-05-07 04:46 | 32.22804 | -108.70002 | 34142 ft | 378 kts | 268° |
| 2026-05-07 04:46 | 32.23266 | -108.76186 | 33976 ft | 378 kts | 268° |
| 2026-05-07 04:47 | 32.23731 | -108.82341 | 33987 ft | 378 kts | 267° |
| 2026-05-07 04:47 | 32.24193 | -108.88532 | 33994 ft | 377 kts | 267° |
| 2026-05-07 04:48 | 32.24641 | -108.94684 | 33989 ft | 377 kts | 267° |
| 2026-05-07 04:48 | 32.25094 | -109.00861 | 33982 ft | 377 kts | 268° |
| 2026-05-07 04:49 | 32.25544 | -109.07041 | 33982 ft | 377 kts | 267° |
| 2026-05-07 04:49 | 32.25989 | -109.13175 | 33994 ft | 377 kts | 267° |
| 2026-05-07 04:50 | 32.26436 | -109.19378 | 33974 ft | 378 kts | 267° |
| 2026-05-07 04:50 | 32.26875 | -109.25553 | 33966 ft | 379 kts | 268° |
| 2026-05-07 04:51 | 32.27758 | -109.31774 | 33974 ft | 385 kts | 272° |
| 2026-05-07 04:51 | 32.28712 | -109.38001 | 33967 ft | 385 kts | 272° |
| 2026-05-07 04:52 | 32.29664 | -109.44236 | 33966 ft | 385 kts | 272° |
| 2026-05-07 04:52 | 32.30602 | -109.50439 | 33958 ft | 386 kts | 272° |
| 2026-05-07 04:53 | 32.31544 | -109.56711 | 33960 ft | 387 kts | 272° |
| 2026-05-07 04:53 | 32.32482 | -109.62987 | 33958 ft | 388 kts | 272° |
| 2026-05-07 04:54 | 32.33417 | -109.69261 | 33974 ft | 395 kts | 272° |
| 2026-05-07 04:54 | 32.34379 | -109.75725 | 33663 ft | 401 kts | 272° |
| 2026-05-07 04:55 | 32.34868 | -109.79007 | 32425 ft | 410 kts | 272° |
| 2026-05-07 04:55 | 32.35365 | -109.82378 | 31232 ft | 421 kts | 274° |
| 2026-05-07 04:55 | 32.35872 | -109.85785 | 30666 ft | 417 kts | 275° |
| 2026-05-07 04:55 | 32.36376 | -109.89140 | 30095 ft | 411 kts | 275° |
| 2026-05-07 04:56 | 32.36874 | -109.92460 | 29394 ft | 407 kts | 275° |
| 2026-05-07 04:56 | 32.37364 | -109.95743 | 28775 ft | 402 kts | 275° |
| 2026-05-07 04:56 | 32.37838 | -109.98949 | 28101 ft | 398 kts | 276° |
| 2026-05-07 04:56 | 32.38310 | -110.02177 | 27436 ft | 399 kts | 276° |
| 2026-05-07 04:57 | 32.38783 | -110.05422 | 26748 ft | 399 kts | 276° |
| 2026-05-07 04:57 | 32.39252 | -110.08649 | 26060 ft | 397 kts | 277° |
| 2026-05-07 04:57 | 32.39714 | -110.11831 | 25396 ft | 395 kts | 277° |
| 2026-05-07 04:57 | 32.40182 | -110.15042 | 24705 ft | 395 kts | 277° |
| 2026-05-07 04:58 | 32.40649 | -110.18256 | 24004 ft | 395 kts | 278° |
| 2026-05-07 04:58 | 32.41115 | -110.21462 | 23288 ft | 397 kts | 278° |
| 2026-05-07 04:58 | 32.41579 | -110.24648 | 22585 ft | 396 kts | 278° |
| 2026-05-07 04:58 | 32.42046 | -110.27858 | 21912 ft | 395 kts | 278° |
| 2026-05-07 04:59 | 32.42511 | -110.31063 | 21259 ft | 394 kts | 279° |
| 2026-05-07 04:59 | 32.42973 | -110.34261 | 20604 ft | 393 kts | 279° |
| 2026-05-07 04:59 | 32.43429 | -110.37442 | 19984 ft | 391 kts | 278° |
| 2026-05-07 04:59 | 32.43881 | -110.40610 | 19384 ft | 389 kts | 279° |
| 2026-05-07 05:00 | 32.44326 | -110.43723 | 18798 ft | 386 kts | 279° |
| 2026-05-07 05:00 | 32.44774 | -110.46852 | 18210 ft | 384 kts | 279° |
| 2026-05-07 05:00 | 32.45217 | -110.49961 | 17566 ft | 381 kts | 279° |
| 2026-05-07 05:00 | 32.45657 | -110.53046 | 16971 ft | 380 kts | 279° |
| 2026-05-07 05:01 | 32.46096 | -110.56125 | 16356 ft | 377 kts | 279° |
| 2026-05-07 05:01 | 32.46530 | -110.59174 | 15729 ft | 374 kts | 279° |
| 2026-05-07 05:01 | 32.46959 | -110.62201 | 15097 ft | 371 kts | 279° |
| 2026-05-07 05:01 | 32.47383 | -110.65211 | 14470 ft | 369 kts | 280° |
| 2026-05-07 05:02 | 32.47800 | -110.68179 | 13821 ft | 368 kts | 280° |
| 2026-05-07 05:02 | 32.48221 | -110.71173 | 13097 ft | 367 kts | 280° |
| 2026-05-07 05:02 | 32.48642 | -110.74161 | 12422 ft | 365 kts | 280° |
| 2026-05-07 05:02 | 32.49059 | -110.77116 | 11744 ft | 362 kts | 279° |
| 2026-05-07 05:03 | 32.49471 | -110.80045 | 11086 ft | 360 kts | 280° |
| 2026-05-07 05:03 | 32.49878 | -110.82940 | 10652 ft | 349 kts | 279° |
| 2026-05-07 05:03 | 32.50262 | -110.85707 | 10535 ft | 332 kts | 279° |
| 2026-05-07 05:03 | 32.50628 | -110.88337 | 10408 ft | 316 kts | 279° |
| 2026-05-07 05:04 | 32.50982 | -110.90862 | 10180 ft | 307 kts | 279° |
| 2026-05-07 05:04 | 32.51321 | -110.93284 | 9961 ft | 302 kts | 279° |
| 2026-05-07 05:04 | 32.51665 | -110.95762 | 9855 ft | 299 kts | 279° |
| 2026-05-07 05:04 | 32.51886 | -110.97354 | 9763 ft | 291 kts | 279° |
| 2026-05-07 05:05 | 32.52309 | -111.00421 | 9581 ft | 277 kts | 279° |
| 2026-05-07 05:05 | 32.52593 | -111.02652 | 9234 ft | 270 kts | 275° |
| 2026-05-07 05:05 | 32.52599 | -111.04151 | 8973 ft | 265 kts | 265° |
| 2026-05-07 05:05 | 32.52385 | -111.06262 | 8586 ft | 259 kts | 263° |
| 2026-05-07 05:06 | 32.52168 | -111.08357 | 8203 ft | 252 kts | 263° |
| 2026-05-07 05:06 | 32.51961 | -111.10393 | 7968 ft | 246 kts | 263° |
| 2026-05-07 05:06 | 32.51759 | -111.12399 | 7368 ft | 242 kts | 264° |
| 2026-05-07 05:06 | 32.51565 | -111.14315 | 7058 ft | 225 kts | 265° |
| 2026-05-07 05:07 | 32.51385 | -111.16061 | 6779 ft | 206 kts | 264° |
| 2026-05-07 05:07 | 32.51223 | -111.17642 | 6483 ft | 180 kts | 264° |
| 2026-05-07 05:07 | 32.51080 | -111.19023 | 6205 ft | 156 kts | 265° |
| 2026-05-07 05:07 | 32.50953 | -111.20237 | 5960 ft | 142 kts | 266° |
| 2026-05-07 05:08 | 32.50836 | -111.21377 | 5764 ft | 138 kts | 265° |
| 2026-05-07 05:08 | 32.50721 | -111.22492 | 5551 ft | 138 kts | 267° |
| 2026-05-07 05:08 | 32.50487 | -111.23595 | 5342 ft | 140 kts | 248° |
| 2026-05-07 05:08 | 32.49890 | -111.24532 | 4875 ft | 149 kts | 226° |
| 2026-05-07 05:09 | 32.49060 | -111.25401 | 4117 ft | 166 kts | 223° |
| 2026-05-07 05:09 | 32.48176 | -111.26310 | 3427 ft | 168 kts | 226° |
| 2026-05-07 05:09 | 32.47543 | -111.27350 | 3062 ft | 147 kts | 261° |
| 2026-05-07 05:09 | 32.47810 | -111.28388 | 2815 ft | 130 kts | 306° |
| 2026-05-07 05:10 | 32.48313 | -111.29273 | 2651 ft | 123 kts | 305° |
| 2026-05-07 05:10 | 32.48862 | -111.30053 | 2445 ft | 125 kts | 319° |
| 2026-05-07 05:10 | 32.49469 | -111.30748 | 2253 ft | 119 kts | 319° |
| 2026-05-07 05:10 | 32.50041 | -111.31429 | 2035 ft | 116 kts | 316° |
| 2026-05-07 05:11 | 32.50597 | -111.32080 | 1904 ft | 101 kts | 316° |
| 2026-05-07 05:11 | 32.50921 | -111.32464 | 1886 ft | 33 kts | 315° |
| 2026-05-07 05:11 | 32.51052 | -111.32617 | 1889 ft | 25 kts | 315° |
| 2026-05-07 05:11 | 32.51177 | -111.32765 | 1892 ft | 25 kts | 315° |
| 2026-05-07 05:12 | 32.51297 | -111.32906 | 1887 ft | 20 kts | 315° |
| 2026-05-07 05:12 | 32.51312 | -111.32924 | 1884 ft | 0 kts | 315° |
| 2026-05-07 05:13 | 32.51313 | -111.32924 | 1884 ft | 0 kts | 322° |
| 2026-05-07 05:13 | 32.51316 | -111.32924 | 1882 ft | 1 kts | 344° |
| 2026-05-07 05:13 | 32.51348 | -111.32910 | 1887 ft | 7 kts | 40° |
| 2026-05-07 05:14 | 32.51385 | -111.32861 | 1888 ft | 10 kts | 49° |
| 2026-05-07 05:14 | 32.51395 | -111.32776 | 1885 ft | 14 kts | 126° |
| 2026-05-07 05:14 | 32.51409 | -111.32675 | 1888 ft | 15 kts | 30° |
| 2026-05-07 05:14 | 32.51438 | -111.32699 | 1891 ft | 0 kts | 221° |